sensor_id;sensor_type;location;lat;lon;timestamp;P1;durP1;ratioP1;P2;durP2;ratioP2
16391;SDS011;8305;-33.882;151.134;2023-08-30T00:02:28;5.25;;;2.90;;
16391;SDS011;8305;-33.882;151.134;2023-08-30T00:04:59;4.05;;;2.83;;
16391;SDS011;8305;-33.882;151.134;2023-08-30T00:07:31;4.63;;;2.70;;
16391;SDS011;8305;-33.882;151.134;2023-08-30T00:10:02;5.18;;;2.75;;
16391;SDS011;8305;-33.882;151.134;2023-08-30T00:12:33;7.47;;;2.88;;
16391;SDS011;8305;-33.882;151.134;2023-08-30T00:15:09;5.55;;;2.80;;
16391;SDS011;8305;-33.882;151.134;2023-08-30T00:17:40;4.75;;;2.75;;
16391;SDS011;8305;-33.882;151.134;2023-08-30T00:20:11;5.22;;;2.90;;
16391;SDS011;8305;-33.882;151.134;2023-08-30T00:22:42;5.95;;;2.60;;
16391;SDS011;8305;-33.882;151.134;2023-08-30T00:25:13;4.80;;;2.90;;
16391;SDS011;8305;-33.882;151.134;2023-08-30T00:27:43;7.18;;;3.17;;
16391;SDS011;8305;-33.882;151.134;2023-08-30T00:30:16;4.15;;;2.58;;
16391;SDS011;8305;-33.882;151.134;2023-08-30T00:32:47;5.63;;;2.85;;
16391;SDS011;8305;-33.882;151.134;2023-08-30T00:35:18;4.53;;;2.75;;
16391;SDS011;8305;-33.882;151.134;2023-08-30T00:37:48;4.10;;;2.28;;
16391;SDS011;8305;-33.882;151.134;2023-08-30T00:40:22;4.10;;;2.15;;
16391;SDS011;8305;-33.882;151.134;2023-08-30T00:42:53;3.65;;;2.60;;
16391;SDS011;8305;-33.882;151.134;2023-08-30T00:45:27;6.30;;;2.63;;
16391;SDS011;8305;-33.882;151.134;2023-08-30T00:47:58;6.07;;;2.40;;
16391;SDS011;8305;-33.882;151.134;2023-08-30T00:50:30;6.28;;;2.60;;
16391;SDS011;8305;-33.882;151.134;2023-08-30T00:53:01;6.45;;;2.05;;
16391;SDS011;8305;-33.882;151.134;2023-08-30T00:55:33;4.53;;;2.30;;
16391;SDS011;8305;-33.882;151.134;2023-08-30T00:58:05;3.92;;;2.10;;
16391;SDS011;8305;-33.882;151.134;2023-08-30T01:00:38;2.55;;;1.90;;
16391;SDS011;8305;-33.882;151.134;2023-08-30T01:03:09;3.83;;;2.00;;
16391;SDS011;8305;-33.882;151.134;2023-08-30T01:05:39;3.45;;;2.13;;
16391;SDS011;8305;-33.882;151.134;2023-08-30T01:08:10;4.90;;;1.90;;
16391;SDS011;8305;-33.882;151.134;2023-08-30T01:10:44;2.63;;;1.50;;
16391;SDS011;8305;-33.882;151.134;2023-08-30T01:13:21;3.47;;;1.80;;
16391;SDS011;8305;-33.882;151.134;2023-08-30T01:15:56;4.35;;;2.00;;
16391;SDS011;8305;-33.882;151.134;2023-08-30T01:18:28;2.13;;;1.60;;
16391;SDS011;8305;-33.882;151.134;2023-08-30T01:21:01;4.68;;;1.70;;
16391;SDS011;8305;-33.882;151.134;2023-08-30T01:23:36;3.40;;;1.75;;
16391;SDS011;8305;-33.882;151.134;2023-08-30T01:26:20;3.25;;;1.38;;
16391;SDS011;8305;-33.882;151.134;2023-08-30T01:28:57;2.42;;;1.50;;
16391;SDS011;8305;-33.882;151.134;2023-08-30T01:31:32;3.28;;;1.52;;
16391;SDS011;8305;-33.882;151.134;2023-08-30T01:34:04;1.90;;;1.30;;
16391;SDS011;8305;-33.882;151.134;2023-08-30T01:36:35;2.72;;;1.23;;
16391;SDS011;8305;-33.882;151.134;2023-08-30T01:39:08;2.00;;;1.30;;
16391;SDS011;8305;-33.882;151.134;2023-08-30T01:41:42;2.55;;;1.40;;
16391;SDS011;8305;-33.882;151.134;2023-08-30T01:44:15;2.60;;;1.40;;
16391;SDS011;8305;-33.882;151.134;2023-08-30T01:46:46;1.38;;;1.20;;
16391;SDS011;8305;-33.882;151.134;2023-08-30T01:49:18;2.00;;;1.38;;
16391;SDS011;8305;-33.882;151.134;2023-08-30T01:51:51;2.15;;;1.20;;
16391;SDS011;8305;-33.882;151.134;2023-08-30T01:54:23;1.48;;;1.30;;
16391;SDS011;8305;-33.882;151.134;2023-08-30T01:56:55;3.15;;;1.40;;
16391;SDS011;8305;-33.882;151.134;2023-08-30T01:59:28;2.65;;;1.20;;
16391;SDS011;8305;-33.882;151.134;2023-08-30T02:01:59;1.58;;;1.17;;
16391;SDS011;8305;-33.882;151.134;2023-08-30T02:04:30;3.08;;;1.10;;
16391;SDS011;8305;-33.882;151.134;2023-08-30T02:07:04;4.07;;;1.30;;
16391;SDS011;8305;-33.882;151.134;2023-08-30T02:09:38;2.05;;;1.23;;
16391;SDS011;8305;-33.882;151.134;2023-08-30T02:12:16;3.40;;;1.35;;
16391;SDS011;8305;-33.882;151.134;2023-08-30T02:14:50;2.20;;;1.30;;
16391;SDS011;8305;-33.882;151.134;2023-08-30T02:17:22;3.22;;;1.17;;
16391;SDS011;8305;-33.882;151.134;2023-08-30T02:19:53;1.85;;;1.20;;
16391;SDS011;8305;-33.882;151.134;2023-08-30T02:22:24;4.60;;;1.40;;
16391;SDS011;8305;-33.882;151.134;2023-08-30T02:24:55;2.55;;;1.10;;
16391;SDS011;8305;-33.882;151.134;2023-08-30T02:27:26;2.72;;;1.38;;
16391;SDS011;8305;-33.882;151.134;2023-08-30T02:29:58;2.70;;;1.40;;
16391;SDS011;8305;-33.882;151.134;2023-08-30T02:32:29;1.10;;;1.00;;
16391;SDS011;8305;-33.882;151.134;2023-08-30T02:35:00;2.15;;;1.20;;
16391;SDS011;8305;-33.882;151.134;2023-08-30T02:37:31;1.60;;;1.30;;
16391;SDS011;8305;-33.882;151.134;2023-08-30T02:40:03;3.00;;;1.27;;
16391;SDS011;8305;-33.882;151.134;2023-08-30T02:42:34;1.60;;;1.08;;
16391;SDS011;8305;-33.882;151.134;2023-08-30T02:45:07;2.95;;;1.33;;
16391;SDS011;8305;-33.882;151.134;2023-08-30T02:47:38;3.28;;;1.25;;
16391;SDS011;8305;-33.882;151.134;2023-08-30T02:50:09;1.38;;;1.10;;
16391;SDS011;8305;-33.882;151.134;2023-08-30T02:52:40;1.75;;;1.42;;
16391;SDS011;8305;-33.882;151.134;2023-08-30T02:55:11;1.88;;;1.45;;
16391;SDS011;8305;-33.882;151.134;2023-08-30T02:57:41;1.10;;;0.98;;
16391;SDS011;8305;-33.882;151.134;2023-08-30T03:00:15;2.25;;;1.30;;
16391;SDS011;8305;-33.882;151.134;2023-08-30T03:02:46;3.17;;;1.40;;
16391;SDS011;8305;-33.882;151.134;2023-08-30T03:05:17;2.33;;;1.20;;
16391;SDS011;8305;-33.882;151.134;2023-08-30T03:07:47;2.20;;;1.05;;
16391;SDS011;8305;-33.882;151.134;2023-08-30T03:10:19;1.88;;;1.08;;
16391;SDS011;8305;-33.882;151.134;2023-08-30T03:12:49;1.75;;;1.25;;
16391;SDS011;8305;-33.882;151.134;2023-08-30T03:15:22;1.52;;;1.30;;
16391;SDS011;8305;-33.882;151.134;2023-08-30T03:17:53;1.55;;;1.10;;
16391;SDS011;8305;-33.882;151.134;2023-08-30T03:20:24;1.30;;;1.02;;
16391;SDS011;8305;-33.882;151.134;2023-08-30T03:22:56;1.58;;;1.13;;
16391;SDS011;8305;-33.882;151.134;2023-08-30T03:25:28;3.22;;;1.27;;
16391;SDS011;8305;-33.882;151.134;2023-08-30T03:27:59;1.00;;;1.00;;
16391;SDS011;8305;-33.882;151.134;2023-08-30T03:30:32;1.10;;;1.00;;
16391;SDS011;8305;-33.882;151.134;2023-08-30T03:33:03;1.38;;;1.10;;
16391;SDS011;8305;-33.882;151.134;2023-08-30T03:35:34;1.90;;;1.00;;
16391;SDS011;8305;-33.882;151.134;2023-08-30T03:38:05;1.05;;;0.95;;
16391;SDS011;8305;-33.882;151.134;2023-08-30T03:40:35;2.67;;;1.20;;
16391;SDS011;8305;-33.882;151.134;2023-08-30T03:43:06;1.63;;;1.02;;
16391;SDS011;8305;-33.882;151.134;2023-08-30T03:45:39;1.73;;;0.90;;
16391;SDS011;8305;-33.882;151.134;2023-08-30T03:48:10;1.20;;;0.93;;
16391;SDS011;8305;-33.882;151.134;2023-08-30T03:50:40;1.40;;;0.90;;
16391;SDS011;8305;-33.882;151.134;2023-08-30T03:53:11;1.35;;;0.95;;
16391;SDS011;8305;-33.882;151.134;2023-08-30T03:55:42;2.05;;;1.40;;
16391;SDS011;8305;-33.882;151.134;2023-08-30T03:58:13;1.48;;;1.13;;
16391;SDS011;8305;-33.882;151.134;2023-08-30T04:00:45;2.90;;;1.05;;
16391;SDS011;8305;-33.882;151.134;2023-08-30T04:03:16;1.08;;;0.88;;
16391;SDS011;8305;-33.882;151.134;2023-08-30T04:05:47;2.28;;;1.00;;
16391;SDS011;8305;-33.882;151.134;2023-08-30T04:08:23;1.10;;;1.00;;
16391;SDS011;8305;-33.882;151.134;2023-08-30T04:10:53;1.40;;;1.20;;
16391;SDS011;8305;-33.882;151.134;2023-08-30T04:13:24;2.22;;;1.27;;
16391;SDS011;8305;-33.882;151.134;2023-08-30T04:15:57;1.70;;;1.00;;
16391;SDS011;8305;-33.882;151.134;2023-08-30T04:18:28;2.35;;;1.20;;
16391;SDS011;8305;-33.882;151.134;2023-08-30T04:20:59;2.97;;;1.50;;
16391;SDS011;8305;-33.882;151.134;2023-08-30T04:23:29;3.85;;;1.30;;
16391;SDS011;8305;-33.882;151.134;2023-08-30T04:26:00;1.38;;;1.17;;
16391;SDS011;8305;-33.882;151.134;2023-08-30T04:28:31;1.98;;;1.30;;
16391;SDS011;8305;-33.882;151.134;2023-08-30T04:31:04;1.80;;;1.17;;
16391;SDS011;8305;-33.882;151.134;2023-08-30T04:33:34;2.05;;;1.20;;
16391;SDS011;8305;-33.882;151.134;2023-08-30T04:36:05;4.30;;;2.10;;
16391;SDS011;8305;-33.882;151.134;2023-08-30T04:38:36;1.98;;;1.38;;
16391;SDS011;8305;-33.882;151.134;2023-08-30T04:41:07;1.55;;;1.15;;
16391;SDS011;8305;-33.882;151.134;2023-08-30T04:43:38;2.88;;;1.33;;
16391;SDS011;8305;-33.882;151.134;2023-08-30T04:46:10;3.70;;;1.60;;
16391;SDS011;8305;-33.882;151.134;2023-08-30T04:48:41;2.78;;;1.35;;
16391;SDS011;8305;-33.882;151.134;2023-08-30T04:51:12;3.03;;;1.40;;
16391;SDS011;8305;-33.882;151.134;2023-08-30T04:53:42;1.85;;;0.98;;
16391;SDS011;8305;-33.882;151.134;2023-08-30T04:56:13;1.20;;;1.10;;
16391;SDS011;8305;-33.882;151.134;2023-08-30T04:58:45;2.45;;;1.00;;
16391;SDS011;8305;-33.882;151.134;2023-08-30T05:01:18;3.03;;;1.10;;
16391;SDS011;8305;-33.882;151.134;2023-08-30T05:03:49;3.53;;;2.13;;
16391;SDS011;8305;-33.882;151.134;2023-08-30T05:06:19;1.75;;;1.05;;
16391;SDS011;8305;-33.882;151.134;2023-08-30T05:08:50;1.85;;;1.15;;
16391;SDS011;8305;-33.882;151.134;2023-08-30T05:11:24;5.10;;;1.90;;
16391;SDS011;8305;-33.882;151.134;2023-08-30T05:13:55;4.72;;;1.83;;
16391;SDS011;8305;-33.882;151.134;2023-08-30T05:16:28;2.10;;;1.88;;
16391;SDS011;8305;-33.882;151.134;2023-08-30T05:18:58;2.72;;;1.52;;
16391;SDS011;8305;-33.882;151.134;2023-08-30T05:21:29;4.78;;;1.98;;
16391;SDS011;8305;-33.882;151.134;2023-08-30T05:24:00;4.10;;;2.00;;
16391;SDS011;8305;-33.882;151.134;2023-08-30T05:26:31;3.95;;;2.08;;
16391;SDS011;8305;-33.882;151.134;2023-08-30T05:29:02;2.80;;;1.75;;
16391;SDS011;8305;-33.882;151.134;2023-08-30T05:31:35;3.00;;;1.90;;
16391;SDS011;8305;-33.882;151.134;2023-08-30T05:34:06;3.03;;;1.95;;
16391;SDS011;8305;-33.882;151.134;2023-08-30T05:36:37;4.93;;;2.22;;
16391;SDS011;8305;-33.882;151.134;2023-08-30T05:39:07;3.97;;;2.25;;
16391;SDS011;8305;-33.882;151.134;2023-08-30T05:41:39;4.93;;;2.20;;
16391;SDS011;8305;-33.882;151.134;2023-08-30T05:44:09;7.32;;;2.70;;
16391;SDS011;8305;-33.882;151.134;2023-08-30T05:46:42;3.72;;;2.45;;
16391;SDS011;8305;-33.882;151.134;2023-08-30T05:49:13;5.05;;;2.42;;
16391;SDS011;8305;-33.882;151.134;2023-08-30T05:51:43;4.65;;;2.53;;
16391;SDS011;8305;-33.882;151.134;2023-08-30T05:54:14;7.93;;;2.83;;
16391;SDS011;8305;-33.882;151.134;2023-08-30T05:56:45;5.10;;;2.30;;
16391;SDS011;8305;-33.882;151.134;2023-08-30T05:59:16;5.55;;;2.20;;
16391;SDS011;8305;-33.882;151.134;2023-08-30T06:01:47;5.25;;;2.88;;
16391;SDS011;8305;-33.882;151.134;2023-08-30T06:04:17;5.40;;;2.10;;
16391;SDS011;8305;-33.882;151.134;2023-08-30T06:06:48;2.85;;;1.25;;
16391;SDS011;8305;-33.882;151.134;2023-08-30T06:09:19;3.58;;;1.63;;
16391;SDS011;8305;-33.882;151.134;2023-08-30T06:11:50;3.08;;;1.60;;
16391;SDS011;8305;-33.882;151.134;2023-08-30T06:14:21;3.63;;;1.88;;
16391;SDS011;8305;-33.882;151.134;2023-08-30T06:16:53;3.72;;;1.63;;
16391;SDS011;8305;-33.882;151.134;2023-08-30T06:19:24;5.63;;;1.83;;
16391;SDS011;8305;-33.882;151.134;2023-08-30T06:21:55;6.63;;;2.22;;
16391;SDS011;8305;-33.882;151.134;2023-08-30T06:24:26;3.72;;;1.80;;
16391;SDS011;8305;-33.882;151.134;2023-08-30T06:26:56;4.85;;;2.10;;
16391;SDS011;8305;-33.882;151.134;2023-08-30T06:29:28;9.05;;;2.22;;
16391;SDS011;8305;-33.882;151.134;2023-08-30T06:32:00;4.60;;;2.03;;
16391;SDS011;8305;-33.882;151.134;2023-08-30T06:34:31;4.70;;;1.80;;
16391;SDS011;8305;-33.882;151.134;2023-08-30T06:37:02;3.70;;;1.52;;
16391;SDS011;8305;-33.882;151.134;2023-08-30T06:39:33;2.63;;;1.40;;
16391;SDS011;8305;-33.882;151.134;2023-08-30T06:42:04;3.10;;;1.60;;
16391;SDS011;8305;-33.882;151.134;2023-08-30T06:44:35;2.42;;;1.50;;
16391;SDS011;8305;-33.882;151.134;2023-08-30T06:47:08;3.17;;;1.60;;
16391;SDS011;8305;-33.882;151.134;2023-08-30T06:49:39;2.40;;;1.73;;
16391;SDS011;8305;-33.882;151.134;2023-08-30T06:52:10;2.35;;;1.50;;
16391;SDS011;8305;-33.882;151.134;2023-08-30T06:54:40;1.58;;;1.40;;
16391;SDS011;8305;-33.882;151.134;2023-08-30T06:57:11;2.67;;;1.50;;
16391;SDS011;8305;-33.882;151.134;2023-08-30T06:59:42;5.15;;;1.40;;
16391;SDS011;8305;-33.882;151.134;2023-08-30T07:02:14;2.85;;;1.58;;
16391;SDS011;8305;-33.882;151.134;2023-08-30T07:04:48;2.63;;;1.27;;
16391;SDS011;8305;-33.882;151.134;2023-08-30T07:07:19;2.33;;;1.60;;
16391;SDS011;8305;-33.882;151.134;2023-08-30T07:09:50;3.78;;;2.00;;
16391;SDS011;8305;-33.882;151.134;2023-08-30T07:12:20;4.30;;;1.50;;
16391;SDS011;8305;-33.882;151.134;2023-08-30T07:14:51;2.88;;;1.70;;
16391;SDS011;8305;-33.882;151.134;2023-08-30T07:17:24;3.05;;;1.80;;
16391;SDS011;8305;-33.882;151.134;2023-08-30T07:19:54;2.25;;;1.60;;
16391;SDS011;8305;-33.882;151.134;2023-08-30T07:22:25;5.07;;;1.95;;
16391;SDS011;8305;-33.882;151.134;2023-08-30T07:24:56;3.60;;;1.88;;
16391;SDS011;8305;-33.882;151.134;2023-08-30T07:27:27;2.55;;;1.60;;
16391;SDS011;8305;-33.882;151.134;2023-08-30T07:29:57;3.65;;;1.70;;
16391;SDS011;8305;-33.882;151.134;2023-08-30T07:32:30;3.40;;;1.70;;
16391;SDS011;8305;-33.882;151.134;2023-08-30T07:35:02;4.38;;;1.77;;
16391;SDS011;8305;-33.882;151.134;2023-08-30T07:37:33;3.28;;;1.65;;
16391;SDS011;8305;-33.882;151.134;2023-08-30T07:40:04;5.22;;;2.00;;
16391;SDS011;8305;-33.882;151.134;2023-08-30T07:42:36;2.97;;;1.90;;
16391;SDS011;8305;-33.882;151.134;2023-08-30T07:45:07;2.90;;;2.05;;
16391;SDS011;8305;-33.882;151.134;2023-08-30T07:47:40;3.35;;;2.03;;
16391;SDS011;8305;-33.882;151.134;2023-08-30T07:50:13;2.83;;;1.80;;
16391;SDS011;8305;-33.882;151.134;2023-08-30T07:52:45;3.67;;;1.92;;
16391;SDS011;8305;-33.882;151.134;2023-08-30T07:55:16;3.65;;;2.10;;
16391;SDS011;8305;-33.882;151.134;2023-08-30T07:57:46;3.85;;;1.92;;
16391;SDS011;8305;-33.882;151.134;2023-08-30T08:00:17;3.05;;;1.80;;
16391;SDS011;8305;-33.882;151.134;2023-08-30T08:02:50;4.20;;;1.90;;
16391;SDS011;8305;-33.882;151.134;2023-08-30T08:05:21;3.45;;;2.10;;
16391;SDS011;8305;-33.882;151.134;2023-08-30T08:07:52;2.30;;;1.75;;
16391;SDS011;8305;-33.882;151.134;2023-08-30T08:10:23;2.92;;;2.08;;
16391;SDS011;8305;-33.882;151.134;2023-08-30T08:12:54;3.42;;;2.03;;
16391;SDS011;8305;-33.882;151.134;2023-08-30T08:15:24;4.45;;;2.00;;
16391;SDS011;8305;-33.882;151.134;2023-08-30T08:17:57;3.83;;;2.10;;
16391;SDS011;8305;-33.882;151.134;2023-08-30T08:20:29;3.25;;;1.75;;
16391;SDS011;8305;-33.882;151.134;2023-08-30T08:23:01;2.42;;;1.80;;
16391;SDS011;8305;-33.882;151.134;2023-08-30T08:25:32;3.55;;;2.00;;
16391;SDS011;8305;-33.882;151.134;2023-08-30T08:28:03;2.05;;;1.80;;
16391;SDS011;8305;-33.882;151.134;2023-08-30T08:30:34;3.60;;;2.00;;
16391;SDS011;8305;-33.882;151.134;2023-08-30T08:33:08;3.78;;;1.88;;
16391;SDS011;8305;-33.882;151.134;2023-08-30T08:35:39;4.85;;;2.53;;
16391;SDS011;8305;-33.882;151.134;2023-08-30T08:38:09;4.63;;;2.53;;
16391;SDS011;8305;-33.882;151.134;2023-08-30T08:40:40;6.05;;;2.60;;
16391;SDS011;8305;-33.882;151.134;2023-08-30T08:43:11;4.80;;;2.65;;
16391;SDS011;8305;-33.882;151.134;2023-08-30T08:45:43;4.88;;;2.30;;
16391;SDS011;8305;-33.882;151.134;2023-08-30T08:48:16;4.68;;;2.60;;
16391;SDS011;8305;-33.882;151.134;2023-08-30T08:50:48;5.05;;;2.50;;
16391;SDS011;8305;-33.882;151.134;2023-08-30T08:53:19;3.95;;;2.45;;
16391;SDS011;8305;-33.882;151.134;2023-08-30T08:55:51;5.03;;;2.50;;
16391;SDS011;8305;-33.882;151.134;2023-08-30T08:58:23;5.53;;;2.60;;
16391;SDS011;8305;-33.882;151.134;2023-08-30T09:00:54;6.80;;;2.30;;
16391;SDS011;8305;-33.882;151.134;2023-08-30T09:03:28;5.82;;;3.10;;
16391;SDS011;8305;-33.882;151.134;2023-08-30T09:06:04;4.22;;;2.67;;
16391;SDS011;8305;-33.882;151.134;2023-08-30T09:08:35;5.30;;;2.58;;
16391;SDS011;8305;-33.882;151.134;2023-08-30T09:11:06;3.72;;;2.45;;
16391;SDS011;8305;-33.882;151.134;2023-08-30T09:13:36;4.80;;;2.40;;
16391;SDS011;8305;-33.882;151.134;2023-08-30T09:16:12;5.63;;;2.60;;
16391;SDS011;8305;-33.882;151.134;2023-08-30T09:18:56;5.32;;;2.55;;
16391;SDS011;8305;-33.882;151.134;2023-08-30T09:21:27;4.60;;;2.30;;
16391;SDS011;8305;-33.882;151.134;2023-08-30T09:23:59;4.03;;;2.20;;
16391;SDS011;8305;-33.882;151.134;2023-08-30T09:26:30;9.45;;;2.45;;
16391;SDS011;8305;-33.882;151.134;2023-08-30T09:29:03;5.50;;;2.92;;
16391;SDS011;8305;-33.882;151.134;2023-08-30T09:31:35;7.70;;;2.90;;
16391;SDS011;8305;-33.882;151.134;2023-08-30T09:34:08;7.95;;;2.70;;
16391;SDS011;8305;-33.882;151.134;2023-08-30T09:36:39;5.80;;;3.13;;
16391;SDS011;8305;-33.882;151.134;2023-08-30T09:39:15;6.13;;;2.50;;
16391;SDS011;8305;-33.882;151.134;2023-08-30T09:41:47;4.28;;;2.40;;
16391;SDS011;8305;-33.882;151.134;2023-08-30T09:44:18;5.47;;;2.20;;
16391;SDS011;8305;-33.882;151.134;2023-08-30T09:46:51;2.45;;;2.00;;
16391;SDS011;8305;-33.882;151.134;2023-08-30T09:49:24;4.82;;;1.92;;
16391;SDS011;8305;-33.882;151.134;2023-08-30T09:51:55;3.95;;;2.15;;
16391;SDS011;8305;-33.882;151.134;2023-08-30T09:54:32;3.58;;;1.88;;
16391;SDS011;8305;-33.882;151.134;2023-08-30T09:57:07;2.97;;;1.80;;
16391;SDS011;8305;-33.882;151.134;2023-08-30T09:59:39;3.28;;;2.00;;
16391;SDS011;8305;-33.882;151.134;2023-08-30T10:02:10;3.97;;;2.00;;
16391;SDS011;8305;-33.882;151.134;2023-08-30T10:04:43;5.13;;;2.03;;
16391;SDS011;8305;-33.882;151.134;2023-08-30T10:07:15;3.58;;;1.80;;
16391;SDS011;8305;-33.882;151.134;2023-08-30T10:09:46;2.50;;;1.90;;
16391;SDS011;8305;-33.882;151.134;2023-08-30T10:12:20;3.42;;;1.80;;
16391;SDS011;8305;-33.882;151.134;2023-08-30T10:14:52;2.83;;;1.80;;
16391;SDS011;8305;-33.882;151.134;2023-08-30T10:17:23;3.42;;;1.90;;
16391;SDS011;8305;-33.882;151.134;2023-08-30T10:19:58;3.17;;;1.90;;
16391;SDS011;8305;-33.882;151.134;2023-08-30T10:22:30;3.20;;;2.03;;
16391;SDS011;8305;-33.882;151.134;2023-08-30T10:25:04;5.25;;;2.35;;
16391;SDS011;8305;-33.882;151.134;2023-08-30T10:27:40;4.28;;;2.20;;
16391;SDS011;8305;-33.882;151.134;2023-08-30T10:30:12;3.63;;;2.20;;
16391;SDS011;8305;-33.882;151.134;2023-08-30T10:32:44;2.83;;;2.10;;
16391;SDS011;8305;-33.882;151.134;2023-08-30T10:35:17;3.35;;;2.05;;
16391;SDS011;8305;-33.882;151.134;2023-08-30T10:37:54;2.50;;;1.90;;
16391;SDS011;8305;-33.882;151.134;2023-08-30T10:40:25;3.17;;;2.00;;
16391;SDS011;8305;-33.882;151.134;2023-08-30T10:43:00;3.22;;;2.00;;
16391;SDS011;8305;-33.882;151.134;2023-08-30T10:45:35;2.63;;;1.90;;
16391;SDS011;8305;-33.882;151.134;2023-08-30T10:48:06;2.78;;;1.75;;
16391;SDS011;8305;-33.882;151.134;2023-08-30T10:50:38;3.08;;;1.90;;
16391;SDS011;8305;-33.882;151.134;2023-08-30T10:53:13;3.78;;;1.80;;
16391;SDS011;8305;-33.882;151.134;2023-08-30T10:58:40;2.78;;;2.00;;
16391;SDS011;8305;-33.882;151.134;2023-08-30T11:01:11;3.00;;;1.90;;
16391;SDS011;8305;-33.882;151.134;2023-08-30T11:03:43;2.25;;;1.77;;
16391;SDS011;8305;-33.882;151.134;2023-08-30T11:06:16;2.92;;;1.77;;
16391;SDS011;8305;-33.882;151.134;2023-08-30T11:08:48;2.38;;;1.60;;
16391;SDS011;8305;-33.882;151.134;2023-08-30T11:11:18;2.28;;;1.70;;
16391;SDS011;8305;-33.882;151.134;2023-08-30T11:13:49;1.88;;;1.65;;
16391;SDS011;8305;-33.882;151.134;2023-08-30T11:16:23;2.10;;;1.50;;
16391;SDS011;8305;-33.882;151.134;2023-08-30T11:18:53;3.03;;;1.42;;
16391;SDS011;8305;-33.882;151.134;2023-08-30T11:21:26;1.98;;;1.40;;
16391;SDS011;8305;-33.882;151.134;2023-08-30T11:23:57;2.63;;;1.52;;
16391;SDS011;8305;-33.882;151.134;2023-08-30T11:26:29;1.50;;;1.38;;
16391;SDS011;8305;-33.882;151.134;2023-08-30T11:29:04;1.30;;;1.20;;
16391;SDS011;8305;-33.882;151.134;2023-08-30T11:31:35;3.22;;;1.63;;
16391;SDS011;8305;-33.882;151.134;2023-08-30T11:34:06;2.08;;;1.50;;
16391;SDS011;8305;-33.882;151.134;2023-08-30T11:36:39;2.22;;;1.58;;
16391;SDS011;8305;-33.882;151.134;2023-08-30T11:39:09;2.88;;;1.65;;
16391;SDS011;8305;-33.882;151.134;2023-08-30T11:41:40;1.98;;;1.42;;
16391;SDS011;8305;-33.882;151.134;2023-08-30T11:44:12;1.98;;;1.35;;
16391;SDS011;8305;-33.882;151.134;2023-08-30T11:46:43;2.53;;;1.50;;
16391;SDS011;8305;-33.882;151.134;2023-08-30T11:49:14;2.67;;;1.77;;
16391;SDS011;8305;-33.882;151.134;2023-08-30T11:51:47;2.88;;;1.63;;
16391;SDS011;8305;-33.882;151.134;2023-08-30T11:54:19;2.20;;;1.50;;
16391;SDS011;8305;-33.882;151.134;2023-08-30T11:56:50;3.67;;;1.90;;
16391;SDS011;8305;-33.882;151.134;2023-08-30T11:59:21;1.85;;;1.63;;
16391;SDS011;8305;-33.882;151.134;2023-08-30T12:01:52;3.55;;;2.10;;
16391;SDS011;8305;-33.882;151.134;2023-08-30T12:04:23;2.33;;;1.90;;
16391;SDS011;8305;-33.882;151.134;2023-08-30T12:06:56;2.47;;;1.77;;
16391;SDS011;8305;-33.882;151.134;2023-08-30T12:09:30;2.38;;;1.80;;
16391;SDS011;8305;-33.882;151.134;2023-08-30T12:12:08;2.38;;;2.00;;
16391;SDS011;8305;-33.882;151.134;2023-08-30T12:14:39;3.13;;;2.17;;
16391;SDS011;8305;-33.882;151.134;2023-08-30T12:17:10;3.75;;;2.13;;
16391;SDS011;8305;-33.882;151.134;2023-08-30T12:19:41;2.20;;;2.00;;
16391;SDS011;8305;-33.882;151.134;2023-08-30T12:22:14;2.55;;;2.05;;
16391;SDS011;8305;-33.882;151.134;2023-08-30T12:24:44;2.78;;;1.90;;
16391;SDS011;8305;-33.882;151.134;2023-08-30T12:27:16;2.72;;;2.08;;
16391;SDS011;8305;-33.882;151.134;2023-08-30T12:29:46;3.30;;;2.00;;
16391;SDS011;8305;-33.882;151.134;2023-08-30T12:32:17;2.42;;;1.85;;
16391;SDS011;8305;-33.882;151.134;2023-08-30T12:34:48;2.88;;;2.10;;
16391;SDS011;8305;-33.882;151.134;2023-08-30T12:37:20;3.85;;;2.40;;
16391;SDS011;8305;-33.882;151.134;2023-08-30T12:39:52;2.58;;;1.98;;
16391;SDS011;8305;-33.882;151.134;2023-08-30T12:42:23;2.05;;;1.88;;
16391;SDS011;8305;-33.882;151.134;2023-08-30T12:44:54;2.55;;;2.13;;
16391;SDS011;8305;-33.882;151.134;2023-08-30T12:47:25;2.85;;;1.90;;
16391;SDS011;8305;-33.882;151.134;2023-08-30T12:49:56;3.00;;;2.28;;
16391;SDS011;8305;-33.882;151.134;2023-08-30T12:52:28;2.60;;;1.90;;
16391;SDS011;8305;-33.882;151.134;2023-08-30T12:54:59;2.97;;;2.20;;
16391;SDS011;8305;-33.882;151.134;2023-08-30T12:57:30;3.17;;;2.00;;
16391;SDS011;8305;-33.882;151.134;2023-08-30T13:00:01;4.22;;;2.47;;
16391;SDS011;8305;-33.882;151.134;2023-08-30T13:02:32;4.30;;;2.55;;
16391;SDS011;8305;-33.882;151.134;2023-08-30T13:05:02;2.30;;;2.10;;
16391;SDS011;8305;-33.882;151.134;2023-08-30T13:07:35;2.85;;;2.10;;
16391;SDS011;8305;-33.882;151.134;2023-08-30T13:10:06;4.32;;;2.60;;
16391;SDS011;8305;-33.882;151.134;2023-08-30T13:12:38;5.78;;;2.58;;
16391;SDS011;8305;-33.882;151.134;2023-08-30T13:15:09;4.25;;;2.35;;
16391;SDS011;8305;-33.882;151.134;2023-08-30T13:17:39;3.70;;;2.60;;
16391;SDS011;8305;-33.882;151.134;2023-08-30T13:20:10;2.55;;;2.30;;
16391;SDS011;8305;-33.882;151.134;2023-08-30T13:22:43;4.40;;;2.80;;
16391;SDS011;8305;-33.882;151.134;2023-08-30T13:25:15;5.43;;;3.20;;
16391;SDS011;8305;-33.882;151.134;2023-08-30T13:27:46;4.53;;;3.75;;
16391;SDS011;8305;-33.882;151.134;2023-08-30T13:30:17;4.78;;;3.70;;
16391;SDS011;8305;-33.882;151.134;2023-08-30T13:32:48;6.35;;;4.35;;
16391;SDS011;8305;-33.882;151.134;2023-08-30T13:35:18;6.65;;;4.43;;
16391;SDS011;8305;-33.882;151.134;2023-08-30T13:37:51;6.20;;;4.28;;
16391;SDS011;8305;-33.882;151.134;2023-08-30T13:40:24;4.20;;;3.30;;
16391;SDS011;8305;-33.882;151.134;2023-08-30T13:42:55;3.58;;;2.92;;
16391;SDS011;8305;-33.882;151.134;2023-08-30T13:45:26;4.05;;;3.35;;
16391;SDS011;8305;-33.882;151.134;2023-08-30T13:47:56;3.38;;;2.75;;
16391;SDS011;8305;-33.882;151.134;2023-08-30T13:50:28;3.53;;;2.90;;
16391;SDS011;8305;-33.882;151.134;2023-08-30T13:53:00;4.47;;;3.00;;
16391;SDS011;8305;-33.882;151.134;2023-08-30T13:55:31;3.85;;;2.50;;
16391;SDS011;8305;-33.882;151.134;2023-08-30T13:58:02;3.60;;;2.45;;
16391;SDS011;8305;-33.882;151.134;2023-08-30T14:00:33;4.45;;;2.33;;
16391;SDS011;8305;-33.882;151.134;2023-08-30T14:03:03;4.57;;;2.55;;
16391;SDS011;8305;-33.882;151.134;2023-08-30T14:05:34;4.72;;;2.50;;
16391;SDS011;8305;-33.882;151.134;2023-08-30T14:08:08;3.50;;;2.65;;
16391;SDS011;8305;-33.882;151.134;2023-08-30T14:10:39;3.83;;;2.80;;
16391;SDS011;8305;-33.882;151.134;2023-08-30T14:13:10;3.40;;;2.50;;
16391;SDS011;8305;-33.882;151.134;2023-08-30T14:15:40;4.57;;;2.90;;
16391;SDS011;8305;-33.882;151.134;2023-08-30T14:18:11;3.83;;;2.45;;
16391;SDS011;8305;-33.882;151.134;2023-08-30T14:20:42;4.15;;;2.60;;
16391;SDS011;8305;-33.882;151.134;2023-08-30T14:23:15;3.78;;;2.40;;
16391;SDS011;8305;-33.882;151.134;2023-08-30T14:25:45;3.47;;;2.28;;
16391;SDS011;8305;-33.882;151.134;2023-08-30T14:28:24;2.63;;;1.88;;
16391;SDS011;8305;-33.882;151.134;2023-08-30T14:30:56;2.35;;;1.85;;
16391;SDS011;8305;-33.882;151.134;2023-08-30T14:33:26;2.00;;;1.80;;
16391;SDS011;8305;-33.882;151.134;2023-08-30T14:35:57;2.50;;;1.92;;
16391;SDS011;8305;-33.882;151.134;2023-08-30T14:38:30;4.30;;;1.52;;
16391;SDS011;8305;-33.882;151.134;2023-08-30T14:41:02;2.47;;;1.70;;
16391;SDS011;8305;-33.882;151.134;2023-08-30T14:43:33;2.40;;;1.52;;
16391;SDS011;8305;-33.882;151.134;2023-08-30T14:46:04;2.33;;;1.63;;
16391;SDS011;8305;-33.882;151.134;2023-08-30T14:48:35;1.85;;;1.40;;
16391;SDS011;8305;-33.882;151.134;2023-08-30T14:51:06;2.20;;;1.70;;